Time;durP1;ratioP1;P1;durP2;ratioP2;P2;SDS_P1;SDS_P2;PMS_P1;PMS_P2;Temp;Humidity;BMP_temperature;BMP_pressure;BME280_temperature;BME280_humidity;BME280_pressure;Samples;Min_cycle;Max_cycle;Signal;HPM_P1;HPM_P2
2023/02/19 00:00:19;;;;;;;9.93;7.13;;;;;;;-146.25;100.00;52497.97;2088644;28;20046;-71
2023/02/19 00:01:24;;;;;;;8.95;6.70;;;;;;;-146.25;100.00;52473.63;2088037;28;35367;-72
2023/02/19 00:02:26;;;;;;;9.25;6.63;;;;;;;-146.25;100.00;52483.78;2087269;28;38140;-71
2023/02/19 00:03:27;;;;;;;10.55;7.18;;;;;;;-146.25;100.00;52475.66;2087926;28;33219;-72
2023/02/19 00:04:31;;;;;;;9.63;7.60;;;;;;;-146.25;100.00;52497.97;2087988;28;21121;-72
2023/02/19 00:05:34;;;;;;;10.43;7.15;;;;;;;-146.25;100.00;52459.44;2087436;28;33151;-72
2023/02/19 00:06:36;;;;;;;12.20;7.95;;;;;;;-146.25;100.00;52497.97;2087995;28;36219;-72
2023/02/19 00:07:37;;;;;;;10.48;7.80;;;;;;;-146.25;100.00;52467.56;2087858;28;36197;-72
2023/02/19 00:08:41;;;;;;;11.00;7.57;;;;;;;-146.25;100.00;52493.91;2089021;28;20112;-72
2023/02/19 00:09:42;;;;;;;11.80;7.40;;;;;;;-146.25;100.00;52487.81;2087887;28;38043;-73
2023/02/19 00:10:44;;;;;;;10.45;6.82;;;;;;;-146.25;100.00;52463.50;2087650;28;34933;-72
2023/02/19 00:11:48;;;;;;;9.38;6.65;;;;;;;-146.25;100.00;52485.81;2087520;28;32700;-72
2023/02/19 00:12:50;;;;;;;9.82;7.05;;;;;;;-146.25;100.00;52485.81;2087501;28;39121;-72
2023/02/19 00:13:54;;;;;;;9.02;6.60;;;;;;;-146.25;100.00;52493.91;2088009;28;33831;-73
2023/02/19 00:14:57;;;;;;;10.18;6.18;;;;;;;-146.25;100.00;52477.69;2087381;28;36973;-73
2023/02/19 00:16:04;;;;;;;10.00;6.47;;;;;;;-146.25;100.00;52477.69;2078893;28;36026;-73
2023/02/19 00:17:06;;;;;;;9.45;5.38;;;;;;;-146.25;100.00;52481.75;2080033;28;33100;-73
2023/02/19 00:18:08;;;;;;;8.27;5.40;;;;;;;-146.25;100.00;52481.75;2087099;28;36667;-73
2023/02/19 00:19:17;;;;;;;7.00;4.95;;;;;;;-146.25;100.00;52465.53;2087726;28;32513;-72
2023/02/19 00:20:19;;;;;;;8.55;5.60;;;;;;;-146.25;100.00;52465.53;2087477;28;35000;-73
2023/02/19 00:21:21;;;;;;;8.52;5.32;;;;;;;-146.25;100.00;52479.72;2087912;28;32975;-72
2023/02/19 00:22:23;;;;;;;8.88;5.25;;;;;;;-146.25;100.00;52465.53;2087852;28;34385;-73
2023/02/19 00:23:25;;;;;;;9.82;4.90;;;;;;;-146.25;100.00;52506.06;2088064;28;36282;-72
2023/02/19 00:24:27;;;;;;;8.25;5.00;;;;;;;-146.25;100.00;52491.88;2088447;28;20143;-72
2023/02/19 00:25:29;;;;;;;8.82;5.05;;;;;;;-146.25;100.00;52495.94;2088007;28;38025;-73
2023/02/19 00:26:31;;;;;;;7.68;4.85;;;;;;;-146.25;100.00;52504.03;2087866;28;20037;-72
2023/02/19 00:27:36;;;;;;;7.07;4.43;;;;;;;-146.25;100.00;52481.75;2087975;28;20029;-73
2023/02/19 00:28:38;;;;;;;7.32;4.00;;;;;;;-146.25;100.00;52497.97;2087710;28;35118;-73
2023/02/19 00:29:40;;;;;;;8.88;4.28;;;;;;;-146.25;100.00;52508.09;2087780;28;32869;-73
2023/02/19 00:30:41;;;;;;;9.60;4.60;;;;;;;-146.25;100.00;52459.44;2088931;28;20038;-72
2023/02/19 00:31:44;;;;;;;8.85;4.78;;;;;;;-146.25;100.00;52455.38;2079135;28;27644;-72
2023/02/19 00:32:50;;;;;;;9.38;4.72;;;;;;;-146.25;100.00;52493.91;2070522;28;25848;-70
2023/02/19 00:33:55;;;;;;;6.22;3.40;;;;;;;-146.25;100.00;52449.31;2080186;28;31138;-72
2023/02/19 00:34:57;;;;;;;7.15;3.78;;;;;;;-146.25;100.00;52455.38;2087825;28;20037;-71
2023/02/19 00:36:04;;;;;;;7.97;4.25;;;;;;;-146.25;100.00;52520.28;2070996;28;26469;-72
2023/02/19 00:37:08;;;;;;;6.97;3.97;;;;;;;-146.25;100.00;52504.03;2065112;28;20042;-72
2023/02/19 00:38:09;;;;;;;7.88;3.90;;;;;;;-146.25;100.00;52489.84;2080322;28;27514;-72
2023/02/19 00:39:17;;;;;;;7.38;3.85;;;;;;;-146.25;100.00;52485.81;2088047;28;25911;-72
2023/02/19 00:40:19;;;;;;;8.10;3.85;;;;;;;-146.25;100.00;52473.63;2088346;28;26506;-72
2023/02/19 00:41:23;;;;;;;6.90;3.72;;;;;;;-146.25;100.00;52504.03;2087001;28;32537;-72
2023/02/19 00:42:27;;;;;;;8.43;4.57;;;;;;;-146.25;100.00;52491.88;2078776;28;29295;-72
2023/02/19 00:43:28;;;;;;;8.48;4.20;;;;;;;-146.25;100.00;52483.78;2070957;28;26527;-72
2023/02/19 00:44:30;;;;;;;10.88;4.35;;;;;;;-146.25;100.00;52469.56;2079676;28;20038;-72
2023/02/19 00:45:33;;;;;;;7.47;4.18;;;;;;;-146.25;100.00;52500.00;2087788;28;33164;-72
2023/02/19 00:46:46;;;;;;;9.63;4.13;;;;;;;-146.25;100.00;52481.75;2086998;28;27007;-72
2023/02/19 00:47:48;;;;;;;10.52;5.20;;;;;;;-146.25;100.00;52491.88;2079409;28;20791;-72
2023/02/19 00:48:53;;;;;;;10.25;4.60;;;;;;;-146.25;100.00;52500.00;2079196;28;24087;-72
2023/02/19 00:49:55;;;;;;;9.13;4.85;;;;;;;-146.25;100.00;52481.75;2086940;28;29744;-71
2023/02/19 00:50:56;;;;;;;9.75;5.00;;;;;;;-146.25;100.00;52481.75;2088159;28;29958;-70
2023/02/19 00:52:00;;;;;;;9.90;4.70;;;;;;;-146.25;100.00;52514.19;2079442;28;20684;-72
2023/02/19 00:53:01;;;;;;;11.20;4.97;;;;;;;-146.25;100.00;52477.69;2071702;28;31240;-71
2023/02/19 00:54:04;;;;;;;11.23;5.28;;;;;;;-146.25;100.00;52495.94;2080766;28;20811;-71
2023/02/19 00:55:06;;;;;;;10.27;4.82;;;;;;;-146.25;100.00;52473.63;2089406;28;20112;-71
2023/02/19 00:56:11;;;;;;;8.23;4.22;;;;;;;-146.25;100.00;52524.31;2079928;28;20111;-71
2023/02/19 00:57:13;;;;;;;10.23;4.60;;;;;;;-146.25;100.00;52489.84;2080450;28;33652;-72
2023/02/19 00:58:17;;;;;;;10.02;4.53;;;;;;;-146.25;100.00;52483.78;2089273;28;29039;-72
2023/02/19 00:59:19;;;;;;;9.70;4.40;;;;;;;-146.25;100.00;52506.06;2080911;28;20034;-71
2023/02/19 01:00:21;;;;;;;7.78;4.15;;;;;;;-146.25;100.00;52526.34;2080453;28;29066;-72
2023/02/19 01:01:23;;;;;;;9.05;4.13;;;;;;;-146.25;100.00;52514.19;2089684;28;20850;-69
2023/02/19 01:02:25;;;;;;;10.00;4.18;;;;;;;-146.25;100.00;52520.28;2080065;28;20141;-71
2023/02/19 01:03:27;;;;;;;11.50;4.60;;;;;;;-146.25;100.00;52471.59;2064471;28;20051;-71
2023/02/19 01:04:30;;;;;;;12.77;5.13;;;;;;;-146.25;100.00;52481.75;2055760;28;38750;-71
2023/02/19 01:05:32;;;;;;;10.48;4.30;;;;;;;-146.25;100.00;52526.34;2073105;28;26362;-72
2023/02/19 01:06:36;;;;;;;9.05;4.10;;;;;;;-146.25;100.00;52473.63;2080366;28;22356;-72
2023/02/19 01:07:38;;;;;;;9.25;4.18;;;;;;;-146.25;100.00;52465.53;2081435;28;20076;-72
2023/02/19 01:08:42;;;;;;;8.57;4.13;;;;;;;-146.25;100.00;52481.75;2089761;28;20160;-71
2023/02/19 01:09:44;;;;;;;10.65;3.92;;;;;;;-146.25;100.00;52514.19;2080569;28;20127;-72
2023/02/19 01:10:46;;;;;;;9.60;4.60;;;;;;;-146.25;100.00;52477.69;2079826;28;20208;-69
2023/02/19 01:11:48;;;;;;;9.50;4.32;;;;;;;-146.25;100.00;52485.81;2072406;28;20073;-70
2023/02/19 01:12:50;;;;;;;9.38;3.80;;;;;;;-146.25;100.00;52447.28;2080358;28;20049;-72
2023/02/19 01:13:57;;;;;;;8.65;3.75;;;;;;;-146.25;100.00;52508.09;2088720;28;31161;-72
2023/02/19 01:14:59;;;;;;;7.82;3.50;;;;;;;-146.25;100.00;52500.00;2089283;28;20969;-72
2023/02/19 01:16:05;;;;;;;7.95;3.50;;;;;;;-146.25;100.00;52477.69;2089710;28;24372;-71
2023/02/19 01:17:07;;;;;;;6.57;3.40;;;;;;;-146.25;100.00;52522.28;2088905;28;34531;-70
2023/02/19 01:18:10;;;;;;;8.35;3.92;;;;;;;-146.25;100.00;52485.81;2089872;28;20047;-72
2023/02/19 01:19:14;;;;;;;8.75;4.03;;;;;;;-146.25;100.00;52471.59;2089184;28;29404;-69
2023/02/19 01:20:16;;;;;;;6.72;3.10;;;;;;;-146.25;100.00;52485.81;2088735;28;20103;-70
2023/02/19 01:21:25;;;;;;;8.40;3.95;;;;;;;-146.25;100.00;52514.19;2080262;28;20042;-72
2023/02/19 01:22:26;;;;;;;9.55;3.45;;;;;;;-146.25;100.00;52489.84;2072598;28;29810;-70
2023/02/19 01:23:29;;;;;;;9.68;4.00;;;;;;;-146.25;100.00;52471.59;2080516;28;20177;-72
2023/02/19 01:24:36;;;;;;;11.57;3.95;;;;;;;-146.25;100.00;52481.75;2072651;28;20043;-72
2023/02/19 01:25:41;;;;;;;11.90;4.25;;;;;;;-146.25;100.00;52495.94;2081534;28;20046;-71
2023/02/19 01:26:42;;;;;;;9.88;4.00;;;;;;;-146.25;100.00;52485.81;2088730;28;20045;-72
2023/02/19 01:27:45;;;;;;;11.77;4.38;;;;;;;-146.25;100.00;52455.38;2080358;28;20864;-72
2023/02/19 01:28:47;;;;;;;9.68;4.03;;;;;;;-146.25;100.00;52510.13;2080361;28;29012;-73
2023/02/19 01:29:49;;;;;;;9.90;4.20;;;;;;;-146.25;100.00;52469.56;2088940;28;34518;-72
2023/02/19 01:30:51;;;;;;;8.88;4.03;;;;;;;-146.25;100.00;52516.22;2089107;28;20045;-72
2023/02/19 01:31:52;;;;;;;10.38;4.50;;;;;;;-146.25;100.00;52489.84;2089043;28;33853;-72
2023/02/19 01:32:54;;;;;;;10.15;3.90;;;;;;;-146.25;100.00;52457.41;2088703;28;31380;-72
2023/02/19 01:34:00;;;;;;;11.70;4.70;;;;;;;-146.25;100.00;52508.09;2080689;28;20933;-72
2023/02/19 01:35:01;;;;;;;10.90;4.30;;;;;;;-146.25;100.00;52508.09;2080481;28;20038;-71
2023/02/19 01:36:06;;;;;;;9.98;3.90;;;;;;;-146.25;100.00;52510.13;2080419;28;33725;-72
2023/02/19 01:37:12;;;;;;;10.80;4.35;;;;;;;-146.25;100.00;52506.06;2072229;28;20896;-72
2023/02/19 01:38:14;;;;;;;11.50;4.07;;;;;;;-146.25;100.00;52481.75;2073638;28;32388;-72
2023/02/19 01:39:16;;;;;;;10.85;4.28;;;;;;;-146.25;100.00;52510.13;2088210;28;31093;-73
2023/02/19 01:40:18;;;;;;;11.05;4.57;;;;;;;-146.25;100.00;52516.22;2089753;28;20127;-72
2023/02/19 01:41:24;;;;;;;12.35;5.00;;;;;;;-146.25;100.00;52465.53;2089144;28;20038;-72
2023/02/19 01:42:26;;;;;;;12.73;4.88;;;;;;;-146.25;100.00;52489.84;2080156;28;20895;-72
2023/02/19 01:43:29;;;;;;;14.55;4.88;;;;;;;-146.25;100.00;52506.06;2072025;28;20057;-71
2023/02/19 01:44:34;;;;;;;12.52;5.22;;;;;;;-146.25;100.00;52512.16;2080122;28;30014;-72
2023/02/19 01:45:38;;;;;;;12.43;4.70;;;;;;;-146.25;100.00;52502.03;2080439;28;20165;-72
2023/02/19 01:46:42;;;;;;;12.48;5.18;;;;;;;-146.25;100.00;52473.63;2072759;28;25167;-72
2023/02/19 01:47:49;;;;;;;10.45;4.15;;;;;;;-146.25;100.00;52520.28;2080499;28;28552;-73
2023/02/19 01:48:56;;;;;;;12.07;4.90;;;;;;;-146.25;100.00;52479.72;2080332;28;30226;-72
2023/02/19 01:50:00;;;;;;;10.07;4.40;;;;;;;-146.25;100.00;52493.91;2080551;28;20164;-73
2023/02/19 01:51:09;;;;;;;9.75;3.80;;;;;;;-146.25;100.00;52504.03;2071749;28;33836;-72
2023/02/19 01:52:34;;;;;;;7.72;3.70;;;;;;;-146.25;100.00;52520.28;2073726;28;29752;-73
2023/02/19 01:53:43;;;;;;;8.73;3.65;;;;;;;-146.25;100.00;52497.97;2087488;28;37930;-73
2023/02/19 01:54:47;;;;;;;10.65;3.92;;;;;;;-146.25;100.00;52487.81;2079879;28;27320;-72
2023/02/19 01:55:54;;;;;;;9.85;4.10;;;;;;;-146.25;100.00;52473.63;2072466;28;26321;-73
2023/02/19 01:56:58;;;;;;;11.93;4.60;;;;;;;-146.25;100.00;52479.72;2072623;28;20043;-73
2023/02/19 01:58:02;;;;;;;14.43;4.85;;;;;;;-146.25;100.00;52528.38;2079587;28;36349;-72
2023/02/19 01:59:06;;;;;;;12.57;5.32;;;;;;;-146.25;100.00;52469.56;2087898;28;25127;-73
2023/02/19 02:00:12;;;;;;;10.88;4.82;;;;;;;-146.25;100.00;52471.59;2080036;28;20176;-72
2023/02/19 02:01:14;;;;;;;13.00;5.25;;;;;;;-146.25;100.00;52481.75;2081604;28;20045;-72
2023/02/19 02:02:16;;;;;;;11.18;5.03;;;;;;;-146.25;100.00;52487.81;2079538;28;20863;-72
2023/02/19 02:03:18;;;;;;;14.80;5.70;;;;;;;-146.25;100.00;52504.03;2080469;28;20045;-73
2023/02/19 02:04:20;;;;;;;14.02;5.82;;;;;;;-146.25;100.00;52495.94;2070438;28;20169;-73
2023/02/19 02:05:41;;;;;;;14.88;5.75;;;;;;;-146.25;100.00;52493.91;2072138;28;20047;-73
2023/02/19 02:06:56;;;;;;;16.55;7.10;;;;;;;-146.25;100.00;52467.56;2087906;28;20049;-73
2023/02/19 02:10:53;;;;;;;;;;;;;;;-146.25;100.00;52506.06;2075333;28;33193;-73
2023/02/19 02:11:55;;;;;;;21.58;7.88;;;;;;;-146.25;100.00;52506.06;2084029;28;22536;-73
2023/02/19 02:12:58;;;;;;;24.95;9.20;;;;;;;-146.25;100.00;52477.69;2087088;28;38281;-73
2023/02/19 02:14:00;;;;;;;24.20;9.10;;;;;;;-146.25;100.00;52459.44;2080081;28;20084;-73
2023/02/19 02:15:02;;;;;;;24.73;9.65;;;;;;;-146.25;100.00;52473.63;2080107;28;20069;-73
2023/02/19 02:16:18;;;;;;;24.52;9.68;;;;;;;-146.25;100.00;52485.81;2088254;28;20045;-73
2023/02/19 02:17:34;;;;;;;28.40;10.38;;;;;;;-146.25;100.00;52502.03;2088421;28;23810;-73
2023/02/19 02:18:39;;;;;;;27.83;10.20;;;;;;;-146.25;100.00;52489.84;2087982;28;29870;-73
2023/02/19 02:20:13;;;;;;;28.52;11.27;;;;;;;-146.25;100.00;52457.41;2087167;28;35684;-73
2023/02/19 02:21:58;;;;;;;20.95;8.82;;;;;;;-146.25;100.00;52461.47;2087982;28;20937;-72
2023/02/19 02:23:41;;;;;;;25.60;9.73;;;;;;;-146.25;100.00;52481.75;2087751;28;20123;-72
2023/02/19 02:24:54;;;;;;;23.90;9.07;;;;;;;-146.25;100.00;52473.63;2080156;28;20045;-72
2023/02/19 02:26:39;;;;;;;27.58;9.90;;;;;;;-146.25;100.00;52489.84;2084389;28;20097;-72
2023/02/19 02:28:25;;;;;;;28.05;10.45;;;;;;;-146.25;100.00;52481.75;2074438;28;22662;-72
2023/02/19 02:29:51;;;;;;;29.67;10.63;;;;;;;-146.25;100.00;52514.19;2061660;28;20046;-72
2023/02/19 02:30:58;;;;;;;25.23;9.57;;;;;;;-146.25;100.00;52497.97;2078239;28;20041;-72
2023/02/19 02:32:10;;;;;;;24.25;9.45;;;;;;;-146.25;100.00;52475.66;2071278;28;20046;-72
2023/02/19 02:33:27;;;;;;;26.55;10.07;;;;;;;-146.25;100.00;52504.03;2073183;28;33656;-72
2023/02/19 02:34:40;;;;;;;29.98;11.32;;;;;;;-146.25;100.00;52491.88;2074735;28;20104;-72
2023/02/19 02:35:56;;;;;;;29.05;10.45;;;;;;;-146.25;100.00;52465.53;2064278;28;24436;-72
2023/02/19 02:36:59;;;;;;;30.30;10.55;;;;;;;-146.25;100.00;52506.06;2069244;28;20073;-72
2023/02/19 02:38:06;;;;;;;34.72;11.52;;;;;;;-146.25;100.00;52506.06;2079070;28;20049;-72
2023/02/19 02:39:14;;;;;;;32.35;10.48;;;;;;;-146.25;100.00;52485.81;2080074;28;20038;-72
2023/02/19 02:40:18;;;;;;;32.05;11.07;;;;;;;-146.25;100.00;52477.69;2071026;28;20073;-72
2023/02/19 02:41:22;;;;;;;30.00;10.95;;;;;;;-146.25;100.00;52465.53;2071692;28;20038;-72
2023/02/19 02:42:27;;;;;;;28.90;11.55;;;;;;;-146.25;100.00;52504.03;2079387;28;20030;-72
2023/02/19 02:43:47;;;;;;;30.45;10.55;;;;;;;-146.25;100.00;52518.25;2074465;28;20046;-72
2023/02/19 02:46:24;;;;;;;28.88;10.77;;;;;;;-146.25;100.00;52522.28;2079519;28;20053;-72
2023/02/19 02:47:41;;;;;;;27.77;10.45;;;;;;;-146.25;100.00;52477.69;2067290;28;20920;-72
2023/02/19 02:48:58;;;;;;;27.45;11.02;;;;;;;-146.25;100.00;52502.03;2076708;28;20088;-73
2023/02/19 02:50:04;;;;;;;32.50;11.65;;;;;;;-146.25;100.00;52502.03;2047184;28;1166125;-72
2023/02/19 02:51:24;;;;;;;33.50;11.48;;;;;;;-146.25;100.00;52502.03;2088897;28;20077;-72
2023/02/19 02:55:42;;;;;;;24.92;9.60;;;;;;;-146.25;100.00;52471.59;2089130;28;20159;-73
2023/02/19 02:56:47;;;;;;;27.42;10.93;;;;;;;-146.25;100.00;52512.16;2079469;28;20038;-73
2023/02/19 02:57:48;;;;;;;30.73;10.55;;;;;;;-146.25;100.00;52493.91;2064226;28;20676;-72
2023/02/19 02:58:52;;;;;;;26.35;9.73;;;;;;;-146.25;100.00;52473.63;2072027;28;28159;-72
2023/02/19 03:00:05;;;;;;;25.58;8.40;;;;;;;-146.25;100.00;52465.53;2079949;28;20053;-73
2023/02/19 03:02:44;;;;;;;16.95;7.35;;;;;;;-146.25;100.00;52487.81;2080559;28;20042;-73
2023/02/19 03:03:52;;;;;;;19.77;7.90;;;;;;;-146.25;100.00;52510.13;2079139;28;38284;-73
2023/02/19 03:06:36;;;;;;;18.17;7.50;;;;;;;-146.25;100.00;52487.81;2078031;28;20876;-73
2023/02/19 03:07:53;;;;;;;15.70;6.82;;;;;;;-146.25;100.00;52526.34;2080009;28;20038;-73
2023/02/19 03:09:21;;;;;;;13.95;5.80;;;;;;;-146.25;100.00;52526.34;2077484;28;20034;-73
2023/02/19 03:10:38;;;;;;;11.20;4.68;;;;;;;-146.25;100.00;52485.81;2071719;28;20177;-73
2023/02/19 03:19:21;;;;;;;12.98;4.63;;;;;;;-146.25;100.00;52518.25;2071272;28;20038;-73
2023/02/19 03:20:26;;;;;;;13.88;5.60;;;;;;;-146.25;100.00;52514.19;2072570;28;20077;-72
2023/02/19 03:21:28;;;;;;;13.98;5.30;;;;;;;-146.25;100.00;52522.28;2079812;28;20057;-73
2023/02/19 03:22:36;;;;;;;12.43;5.70;;;;;;;-146.25;100.00;52504.03;2080339;28;21339;-70
2023/02/19 03:26:32;;;;;;;12.43;4.78;;;;;;;-146.25;100.00;52473.63;2079596;28;20779;-71
2023/02/19 03:27:39;;;;;;;13.55;5.03;;;;;;;-146.25;100.00;52459.44;2071960;28;20042;-71
2023/02/19 03:30:22;;;;;;;10.95;5.13;;;;;;;-146.25;100.00;52463.50;2075309;28;20203;-70
2023/02/19 03:31:31;;;;;;;11.80;4.97;;;;;;;-146.25;100.00;52481.75;2069530;28;21189;-70
2023/02/19 03:32:44;;;;;;;11.50;5.07;;;;;;;-146.25;100.00;52497.97;2067176;28;20126;-70
2023/02/19 03:33:54;;;;;;;11.20;5.30;;;;;;;-146.25;100.00;52512.16;2072765;28;20047;-70
2023/02/19 03:35:04;;;;;;;;;;;;;;;-146.25;100.00;52510.13;2073351;28;20153;-70
2023/02/19 03:36:14;;;;;;;11.73;4.53;;;;;;;-146.25;100.00;52477.69;2072575;28;19952;-71
2023/02/19 03:37:25;;;;;;;9.63;4.53;;;;;;;-146.25;100.00;52506.06;2079782;28;20050;-71
2023/02/19 03:38:41;;;;;;;11.13;5.07;;;;;;;-146.25;100.00;52479.72;2072909;28;20040;-71
2023/02/19 03:39:44;;;;;;;11.82;5.07;;;;;;;-146.25;100.00;52495.94;2082243;28;22549;-71
2023/02/19 03:41:10;;;;;;;12.18;5.22;;;;;;;-146.25;100.00;52506.06;2087696;28;20893;-70
2023/02/19 03:42:44;;;;;;;12.85;4.93;;;;;;;-146.25;100.00;52485.81;2079277;28;20046;-71
2023/02/19 03:44:06;;;;;;;10.38;4.97;;;;;;;-146.25;100.00;52473.63;2079494;28;20938;-71
2023/02/19 03:45:26;;;;;;;12.25;4.95;;;;;;;-146.25;100.00;52497.97;2079742;28;20045;-71
2023/02/19 03:46:40;;;;;;;11.48;4.88;;;;;;;-146.25;100.00;52504.03;2083976;28;20068;-71
2023/02/19 03:48:17;;;;;;;12.88;4.88;;;;;;;-146.25;100.00;52512.16;2080048;28;22647;-70
2023/02/19 03:49:31;;;;;;;13.00;4.40;;;;;;;-146.25;100.00;52514.19;2071949;28;20116;-70
2023/02/19 03:50:59;;;;;;;10.52;4.95;;;;;;;-146.25;100.00;52477.69;2073665;28;20050;-70
2023/02/19 03:52:15;;;;;;;10.05;4.70;;;;;;;-146.25;100.00;52508.09;2066699;28;20050;-70
2023/02/19 03:53:34;;;;;;;15.50;5.25;;;;;;;-146.25;100.00;52483.78;2075066;28;20054;-70
2023/02/19 03:55:17;;;;;;;14.93;4.70;;;;;;;-146.25;100.00;52514.19;2081685;28;25299;-70
2023/02/19 03:56:35;;;;;;;11.35;4.00;;;;;;;-146.25;100.00;52506.06;2079583;28;20042;-71
2023/02/19 03:58:19;;;;;;;7.30;3.38;;;;;;;-146.25;100.00;52441.19;2079694;28;20050;-70
2023/02/19 04:00:10;;;;;;;11.68;4.30;;;;;;;-146.25;100.00;52510.13;2076881;28;20077;-70
2023/02/19 04:01:51;;;;;;;9.38;4.03;;;;;;;-146.25;100.00;52508.09;2062320;28;20417;-71
2023/02/19 04:03:08;;;;;;;10.15;3.60;;;;;;;-146.25;100.00;52493.91;2067680;28;20188;-70
2023/02/19 04:04:22;;;;;;;7.65;3.67;;;;;;;-146.25;100.00;52483.78;2075565;28;22760;-70
2023/02/19 04:05:30;;;;;;;8.98;3.65;;;;;;;-146.25;100.00;52487.81;2082839;28;20169;-70
2023/02/19 04:06:35;;;;;;;8.85;4.03;;;;;;;-146.25;100.00;52506.06;2071546;28;20047;-70
2023/02/19 04:07:44;;;;;;;8.65;3.75;;;;;;;-146.25;100.00;52508.09;2064305;28;20170;-70
2023/02/19 04:08:51;;;;;;;9.63;4.18;;;;;;;-146.25;100.00;52500.00;2073215;28;20093;-70
2023/02/19 04:09:53;;;;;;;9.30;3.75;;;;;;;-146.25;100.00;52485.81;2073318;28;20112;-70
2023/02/19 04:10:59;;;;;;;9.32;3.67;;;;;;;-146.25;100.00;52481.75;2072426;28;20042;-70
2023/02/19 04:12:05;;;;;;;7.95;3.17;;;;;;;-146.25;100.00;52540.53;2072600;28;20038;-70
2023/02/19 04:13:16;;;;;;;9.82;3.70;;;;;;;-146.25;100.00;52493.91;2072745;28;20039;-71
2023/02/19 04:14:26;;;;;;;7.82;3.50;;;;;;;-146.25;100.00;52475.66;2073042;28;20120;-71
2023/02/19 04:15:33;;;;;;;10.60;3.50;;;;;;;-146.25;100.00;52489.84;2081883;28;36474;-71
2023/02/19 04:16:40;;;;;;;7.95;3.50;;;;;;;-146.25;100.00;52473.63;2079898;28;20049;-71
2023/02/19 04:18:11;;;;;;;11.23;3.53;;;;;;;-146.25;100.00;52502.03;2081393;28;20176;-71
2023/02/19 04:19:19;;;;;;;8.95;2.90;;;;;;;-146.25;100.00;52479.72;2088011;28;36190;-70
2023/02/19 04:20:25;;;;;;;9.63;2.97;;;;;;;-146.25;100.00;52489.84;2087234;28;33607;-71
2023/02/19 04:21:31;;;;;;;9.48;2.83;;;;;;;-146.25;100.00;52477.69;2078826;28;30882;-71
2023/02/19 04:22:36;;;;;;;6.90;2.95;;;;;;;-146.25;100.00;52489.84;2080555;28;31689;-71
2023/02/19 04:23:43;;;;;;;8.27;3.55;;;;;;;-146.25;100.00;52471.59;2079226;28;32245;-71
2023/02/19 04:24:50;;;;;;;9.18;2.92;;;;;;;-146.25;100.00;52508.09;2081045;28;20115;-71
2023/02/19 04:25:58;;;;;;;7.22;2.78;;;;;;;-146.25;100.00;52500.00;2071739;28;20035;-71
2023/02/19 04:27:02;;;;;;;6.47;2.40;;;;;;;-146.25;100.00;52497.97;2072482;28;34958;-71
2023/02/19 04:28:04;;;;;;;6.72;2.70;;;;;;;-146.25;100.00;52518.25;2080881;28;33652;-71
2023/02/19 04:29:06;;;;;;;10.40;2.42;;;;;;;-146.25;100.00;52479.72;2089380;28;33263;-70
2023/02/19 04:30:11;;;;;;;6.82;2.40;;;;;;;-146.25;100.00;52516.22;2088392;28;39303;-71
2023/02/19 04:31:13;;;;;;;7.32;2.78;;;;;;;-146.25;100.00;52536.50;2081486;28;20093;-71
2023/02/19 04:32:18;;;;;;;7.80;2.80;;;;;;;-146.25;100.00;52473.63;2081612;28;20805;-72
2023/02/19 04:33:20;;;;;;;7.40;2.45;;;;;;;-146.25;100.00;52473.63;2088671;28;33827;-70
2023/02/19 04:34:22;;;;;;;9.52;2.60;;;;;;;-146.25;100.00;52528.38;2088874;28;20937;-70
2023/02/19 04:35:26;;;;;;;5.18;2.80;;;;;;;-146.25;100.00;52489.84;2089184;28;21105;-70
2023/02/19 04:36:27;;;;;;;8.15;2.75;;;;;;;-146.25;100.00;52487.81;2088791;28;36345;-71
2023/02/19 04:37:29;;;;;;;8.27;2.45;;;;;;;-146.25;100.00;52512.16;2089414;28;38980;-70
2023/02/19 04:38:33;;;;;;;6.13;3.00;;;;;;;-146.25;100.00;52493.91;2089144;28;34867;-70
2023/02/19 04:39:35;;;;;;;9.32;3.10;;;;;;;-146.25;100.00;52477.69;2090008;28;20033;-70
2023/02/19 04:40:39;;;;;;;8.60;3.10;;;;;;;-146.25;100.00;52485.81;2089633;28;36025;-70
2023/02/19 04:41:41;;;;;;;8.02;2.63;;;;;;;-146.25;100.00;52489.84;2088885;28;32382;-70
2023/02/19 04:42:45;;;;;;;6.65;2.70;;;;;;;-146.25;100.00;52538.53;2080231;28;32177;-70
2023/02/19 04:43:49;;;;;;;6.65;2.50;;;;;;;-146.25;100.00;52506.06;2080615;28;37097;-70
2023/02/19 04:44:51;;;;;;;7.45;2.92;;;;;;;-146.25;100.00;52473.63;2088681;28;33946;-70
2023/02/19 04:45:52;;;;;;;7.72;2.55;;;;;;;-146.25;100.00;52504.03;2089222;28;37251;-69
2023/02/19 04:46:54;;;;;;;9.00;2.67;;;;;;;-146.25;100.00;52516.22;2089056;28;32513;-70
2023/02/19 04:47:59;;;;;;;8.55;2.88;;;;;;;-146.25;100.00;52489.84;2089861;28;20038;-70
2023/02/19 04:49:00;;;;;;;6.10;2.65;;;;;;;-146.25;100.00;52502.03;2088960;28;37481;-69
2023/02/19 04:50:03;;;;;;;9.15;3.13;;;;;;;-146.25;100.00;52481.75;2089297;28;32954;-69
2023/02/19 04:51:06;;;;;;;8.23;2.60;;;;;;;-146.25;100.00;52485.81;2089115;28;34575;-69
2023/02/19 04:52:08;;;;;;;6.65;2.70;;;;;;;-146.25;100.00;52465.53;2080295;28;34845;-69
2023/02/19 04:53:09;;;;;;;6.35;2.58;;;;;;;-146.25;100.00;52485.81;2072016;28;33382;-69
2023/02/19 04:54:11;;;;;;;7.43;2.72;;;;;;;-146.25;100.00;52516.22;2080657;28;37565;-70
2023/02/19 04:55:13;;;;;;;11.95;2.88;;;;;;;-146.25;100.00;52512.16;2080057;28;35198;-69
2023/02/19 04:56:18;;;;;;;7.25;2.38;;;;;;;-146.25;100.00;52489.84;2081042;28;20128;-69
2023/02/19 04:57:24;;;;;;;6.30;2.67;;;;;;;-146.25;100.00;52483.78;2080748;28;20046;-70
2023/02/19 04:58:26;;;;;;;9.02;2.90;;;;;;;-146.25;100.00;52473.63;2081026;28;33611;-70
2023/02/19 04:59:28;;;;;;;7.68;2.50;;;;;;;-146.25;100.00;52493.91;2089729;28;20042;-70
2023/02/19 05:00:32;;;;;;;9.02;2.75;;;;;;;-146.25;100.00;52491.88;2080516;28;27229;-70
2023/02/19 05:01:34;;;;;;;7.65;2.67;;;;;;;-146.25;100.00;52487.81;2080349;28;37298;-69
2023/02/19 05:02:36;;;;;;;8.32;2.42;;;;;;;-146.25;100.00;52457.41;2089265;28;20037;-70
2023/02/19 05:03:37;;;;;;;4.95;2.67;;;;;;;-146.25;100.00;52467.56;2088909;28;39051;-70
2023/02/19 05:04:40;;;;;;;8.23;2.75;;;;;;;-146.25;100.00;52453.34;2088928;28;31354;-70
2023/02/19 05:05:42;;;;;;;7.97;2.63;;;;;;;-146.25;100.00;52491.88;2087866;28;36252;-70
2023/02/19 05:06:43;;;;;;;4.72;2.25;;;;;;;-146.25;100.00;52500.00;2089305;28;20885;-70
2023/02/19 05:07:45;;;;;;;6.63;2.50;;;;;;;-146.25;100.00;52506.06;2088384;28;35572;-70
2023/02/19 05:08:47;;;;;;;6.43;3.00;;;;;;;-146.25;100.00;52489.84;2087844;28;39088;-70
2023/02/19 05:09:49;;;;;;;8.43;2.42;;;;;;;-146.25;100.00;52493.91;2080180;28;34186;-70
2023/02/19 05:10:55;;;;;;;7.30;3.00;;;;;;;-146.25;100.00;52516.22;2080265;28;37301;-70
2023/02/19 05:11:57;;;;;;;6.40;2.90;;;;;;;-146.25;100.00;52457.41;2088822;28;20944;-70
2023/02/19 05:12:59;;;;;;;7.00;2.55;;;;;;;-146.25;100.00;52510.13;2089139;28;36065;-70
2023/02/19 05:14:01;;;;;;;9.27;3.17;;;;;;;-146.25;100.00;52522.28;2088423;28;33351;-70
2023/02/19 05:15:02;;;;;;;8.68;3.50;;;;;;;-146.25;100.00;52514.19;2088575;28;32830;-70
2023/02/19 05:16:14;;;;;;;9.77;3.42;;;;;;;-146.25;100.00;52465.53;2088944;28;37434;-70
2023/02/19 05:17:16;;;;;;;10.43;3.70;;;;;;;-146.25;100.00;52495.94;2089877;28;21156;-70
2023/02/19 05:18:18;;;;;;;8.00;3.38;;;;;;;-146.25;100.00;52510.13;2088214;28;36139;-70
2023/02/19 05:19:20;;;;;;;8.70;3.10;;;;;;;-146.25;100.00;52465.53;2088681;28;35388;-70
2023/02/19 05:20:22;;;;;;;7.32;3.58;;;;;;;-146.25;100.00;52487.81;2088876;28;33680;-70
2023/02/19 05:21:24;;;;;;;8.40;3.72;;;;;;;-146.25;100.00;52477.69;2088551;28;36372;-70
2023/02/19 05:22:28;;;;;;;8.38;4.00;;;;;;;-146.25;100.00;52502.03;2079640;28;39075;-70
2023/02/19 05:23:30;;;;;;;9.18;3.75;;;;;;;-146.25;100.00;52491.88;2081402;28;20907;-70
2023/02/19 05:24:32;;;;;;;10.25;3.75;;;;;;;-146.25;100.00;52485.81;2088731;28;37575;-70
2023/02/19 05:25:33;;;;;;;10.45;4.57;;;;;;;-146.25;100.00;52489.84;2089456;28;37017;-70